createdAt,value
2023-07-19T00:00:01.797Z,16.46
2023-07-19T00:02:28.488Z,16.43
2023-07-19T00:04:55.193Z,16.42
2023-07-19T00:07:21.867Z,16.43
2023-07-19T00:09:48.650Z,16.47
2023-07-19T00:12:15.327Z,16.44
2023-07-19T00:14:42.080Z,16.29
2023-07-19T00:17:08.778Z,16.20
2023-07-19T00:19:35.415Z,16.12
2023-07-19T00:22:02.209Z,16.04
2023-07-19T00:24:29.155Z,16.06
2023-07-19T00:26:57.450Z,16.07
2023-07-19T00:29:24.179Z,16.09
2023-07-19T00:31:50.836Z,16.03
2023-07-19T00:34:17.553Z,15.96
2023-07-19T00:36:44.234Z,15.93
2023-07-19T00:39:11.444Z,15.90
2023-07-19T00:41:38.132Z,15.89
2023-07-19T00:44:05.148Z,15.91
2023-07-19T00:46:32.149Z,15.93
2023-07-19T00:48:58.938Z,15.93
2023-07-19T00:51:26.499Z,15.94
2023-07-19T00:53:55.296Z,15.83
2023-07-19T00:56:22.358Z,15.66
2023-07-19T00:58:51.691Z,15.48
2023-07-19T01:01:22.567Z,15.52
2023-07-19T01:03:49.441Z,15.63
2023-07-19T01:06:16.923Z,15.58
2023-07-19T01:08:43.607Z,15.61
2023-07-19T01:11:10.323Z,15.57
2023-07-19T01:13:36.993Z,15.58
2023-07-19T01:16:03.963Z,15.61
2023-07-19T01:18:30.729Z,15.64
2023-07-19T01:21:00.115Z,15.63
2023-07-19T01:23:34.113Z,15.64
2023-07-19T01:26:00.766Z,15.59
2023-07-19T01:28:27.374Z,15.53
2023-07-19T01:30:53.995Z,15.62
2023-07-19T01:33:32.675Z,15.67
2023-07-19T01:36:01.306Z,15.70
2023-07-19T01:38:28.356Z,15.72
2023-07-19T01:40:55.321Z,15.74
2023-07-19T01:43:22.014Z,15.74
2023-07-19T01:45:48.843Z,15.75
2023-07-19T01:48:15.616Z,15.57
2023-07-19T01:50:48.480Z,15.36
2023-07-19T01:53:16.035Z,15.46
2023-07-19T01:55:43.139Z,15.53
2023-07-19T01:58:10.749Z,15.57
2023-07-19T02:00:38.171Z,15.51
2023-07-19T02:03:05.346Z,15.41
2023-07-19T02:05:32.784Z,15.44
2023-07-19T02:07:59.495Z,15.44
2023-07-19T02:10:26.840Z,15.35
2023-07-19T02:12:53.547Z,15.41
2023-07-19T02:15:20.311Z,15.48
2023-07-19T02:17:47.251Z,15.50
2023-07-19T02:20:15.048Z,15.57
2023-07-19T02:22:41.713Z,15.60
2023-07-19T02:25:08.967Z,15.47
2023-07-19T02:27:35.588Z,15.42
2023-07-19T02:30:03.541Z,15.51
2023-07-19T02:32:30.244Z,15.46
2023-07-19T02:34:56.931Z,15.40
2023-07-19T02:37:23.589Z,15.48
2023-07-19T02:39:50.593Z,15.56
2023-07-19T02:42:17.815Z,15.62
2023-07-19T02:44:44.501Z,15.59
2023-07-19T02:47:13.741Z,15.48
2023-07-19T02:49:43.477Z,15.42
2023-07-19T02:52:10.270Z,15.51
2023-07-19T02:54:36.921Z,15.52
2023-07-19T02:57:03.879Z,15.50
2023-07-19T02:59:30.537Z,15.41
2023-07-19T03:01:57.190Z,15.33
2023-07-19T03:04:23.844Z,15.33
2023-07-19T03:06:50.761Z,15.33
2023-07-19T03:09:17.559Z,15.34
2023-07-19T03:11:44.278Z,15.31
2023-07-19T03:14:10.973Z,15.20
2023-07-19T03:16:38.105Z,14.97
2023-07-19T03:19:05.456Z,14.98
2023-07-19T03:21:32.108Z,14.99
2023-07-19T03:23:58.757Z,15.01
2023-07-19T03:26:25.518Z,15.05
2023-07-19T03:28:52.232Z,14.98
2023-07-19T03:31:19.235Z,14.93
2023-07-19T03:33:46.241Z,14.82
2023-07-19T03:36:12.941Z,14.80
2023-07-19T03:38:39.580Z,14.82
2023-07-19T03:41:10.851Z,14.70
2023-07-19T03:43:38.009Z,14.72
2023-07-19T03:46:06.843Z,14.72
2023-07-19T03:48:33.601Z,14.68
2023-07-19T03:51:02.213Z,14.60
2023-07-19T03:53:29.715Z,14.44
2023-07-19T03:55:59.111Z,14.42
2023-07-19T03:58:27.622Z,14.46
2023-07-19T04:00:59.621Z,14.51
2023-07-19T04:03:28.228Z,14.51
2023-07-19T04:05:55.447Z,14.62
2023-07-19T04:08:22.132Z,14.60
2023-07-19T04:10:48.829Z,14.54
2023-07-19T04:13:16.181Z,14.61
2023-07-19T04:15:43.058Z,14.59
2023-07-19T04:18:09.891Z,14.56
2023-07-19T04:20:37.822Z,14.52
2023-07-19T04:23:05.214Z,14.45
2023-07-19T04:25:32.510Z,14.44
2023-07-19T04:27:59.308Z,14.42
2023-07-19T04:30:26.336Z,14.50
2023-07-19T04:32:56.173Z,14.50
2023-07-19T04:35:23.758Z,14.49
2023-07-19T04:37:51.467Z,14.53
2023-07-19T04:40:18.611Z,14.53
2023-07-19T04:42:45.350Z,14.58
2023-07-19T04:45:12.705Z,14.60
2023-07-19T04:47:39.480Z,14.60
2023-07-19T04:50:09.909Z,14.66
2023-07-19T04:52:37.623Z,14.53
2023-07-19T04:55:06.422Z,14.54
2023-07-19T04:57:33.441Z,14.61
2023-07-19T05:00:00.179Z,14.70
2023-07-19T05:02:26.887Z,14.78
2023-07-19T05:04:54.374Z,14.84
2023-07-19T05:07:21.329Z,14.87
2023-07-19T05:09:48.009Z,14.91
2023-07-19T05:12:16.113Z,14.97
2023-07-19T05:14:42.990Z,14.96
2023-07-19T05:17:09.782Z,14.97
2023-07-19T05:19:36.715Z,14.93
2023-07-19T05:22:03.488Z,15.02
2023-07-19T05:24:30.130Z,15.10
2023-07-19T05:26:56.850Z,15.10
2023-07-19T05:29:23.786Z,15.21
2023-07-19T05:31:50.512Z,15.38
2023-07-19T05:34:17.251Z,15.49
2023-07-19T05:36:43.964Z,15.63
2023-07-19T05:39:10.673Z,15.78
2023-07-19T05:41:37.467Z,15.84
2023-07-19T05:44:11.634Z,15.91
2023-07-19T05:46:39.455Z,15.98
2023-07-19T05:49:06.384Z,16.09
2023-07-19T05:51:33.134Z,16.18
2023-07-19T05:53:59.980Z,16.31
2023-07-19T05:56:26.654Z,16.41
2023-07-19T05:58:55.085Z,16.49
2023-07-19T06:01:24.952Z,16.63
2023-07-19T06:03:52.971Z,16.74
2023-07-19T06:06:19.678Z,16.89
2023-07-19T06:08:46.337Z,17.03
2023-07-19T06:11:13.086Z,17.18
2023-07-19T06:13:39.784Z,17.33
2023-07-19T06:16:06.998Z,17.45
2023-07-19T06:18:33.835Z,17.53
2023-07-19T06:21:00.558Z,17.64
2023-07-19T06:23:27.502Z,17.73
2023-07-19T06:25:54.584Z,17.77
2023-07-19T06:28:38.967Z,17.78
2023-07-19T06:31:14.396Z,17.89
2023-07-19T06:33:41.191Z,17.96
2023-07-19T06:36:07.934Z,18.07
2023-07-19T06:38:37.999Z,18.22
2023-07-19T06:41:05.760Z,18.37
2023-07-19T06:43:32.792Z,18.41
2023-07-19T06:45:59.497Z,18.47
2023-07-19T06:48:26.258Z,18.58
2023-07-19T06:50:53.000Z,18.66
2023-07-19T06:53:19.621Z,18.77
2023-07-19T06:55:46.898Z,18.87
2023-07-19T06:58:13.720Z,18.93
2023-07-19T07:00:40.540Z,18.90
2023-07-19T07:03:07.406Z,19.01
2023-07-19T07:05:34.961Z,19.17
2023-07-19T07:08:01.661Z,19.29
2023-07-19T07:10:28.351Z,19.39
2023-07-19T07:12:55.051Z,19.54
2023-07-19T07:15:21.863Z,19.70
2023-07-19T07:17:49.915Z,19.68
2023-07-19T07:20:16.936Z,19.84
2023-07-19T07:22:44.317Z,19.97
2023-07-19T07:25:11.497Z,19.97
2023-07-19T07:27:38.257Z,20.09
2023-07-19T07:30:08.899Z,20.19
2023-07-19T07:32:35.997Z,20.30
2023-07-19T07:35:04.108Z,20.38
2023-07-19T07:37:30.825Z,20.45
2023-07-19T07:39:57.544Z,20.55
2023-07-19T07:42:25.468Z,20.53
2023-07-19T07:44:52.128Z,20.52
2023-07-19T07:47:18.998Z,20.49
2023-07-19T07:49:47.750Z,20.50
2023-07-19T07:52:16.533Z,20.38
2023-07-19T07:54:43.365Z,20.23
2023-07-19T07:57:14.868Z,20.30
2023-07-19T07:59:42.749Z,20.33
2023-07-19T08:02:09.387Z,20.44
2023-07-19T08:04:36.071Z,20.46
2023-07-19T08:07:02.783Z,20.53
2023-07-19T08:09:29.477Z,20.58
2023-07-19T08:11:56.398Z,20.67
2023-07-19T08:14:23.291Z,20.78
2023-07-19T08:16:54.464Z,20.86
2023-07-19T08:19:21.248Z,20.91
2023-07-19T08:21:48.020Z,20.95
2023-07-19T08:24:14.719Z,20.96
2023-07-19T08:26:41.672Z,20.87
2023-07-19T08:29:08.410Z,20.86
2023-07-19T08:31:35.668Z,20.91
2023-07-19T08:34:02.556Z,20.98
2023-07-19T08:36:29.259Z,21.03
2023-07-19T08:38:56.728Z,21.10
2023-07-19T08:41:25.619Z,21.15
2023-07-19T08:43:56.167Z,21.11
2023-07-19T08:46:24.055Z,21.23
2023-07-19T08:48:51.516Z,21.39
2023-07-19T08:51:19.557Z,21.16
2023-07-19T08:53:46.668Z,21.19
2023-07-19T08:56:14.517Z,21.26
2023-07-19T08:58:44.403Z,21.16
2023-07-19T09:01:13.101Z,21.24
2023-07-19T09:03:40.001Z,21.40
2023-07-19T09:06:07.188Z,21.58
2023-07-19T09:08:39.349Z,21.73
2023-07-19T09:11:06.314Z,21.94
2023-07-19T09:13:38.082Z,22.08
2023-07-19T09:16:06.835Z,22.11
2023-07-19T09:18:38.684Z,22.06
2023-07-19T09:21:05.901Z,22.09
2023-07-19T09:23:39.728Z,22.11
2023-07-19T09:26:08.223Z,22.19
2023-07-19T09:28:36.093Z,22.16
2023-07-19T09:33:36.079Z,22.15
2023-07-19T09:36:02.903Z,22.01
2023-07-19T09:38:29.714Z,22.03
2023-07-19T09:40:56.890Z,21.83
2023-07-19T09:43:23.608Z,21.89
2023-07-19T09:45:51.991Z,21.90
2023-07-19T09:48:22.472Z,21.96
2023-07-19T09:50:50.954Z,22.16
2023-07-19T09:53:23.820Z,22.19
2023-07-19T09:55:54.056Z,22.25
2023-07-19T09:58:23.433Z,22.32
2023-07-19T10:00:51.344Z,22.38
2023-07-19T10:03:22.613Z,22.35
2023-07-19T10:05:58.036Z,22.28
2023-07-19T10:08:24.837Z,22.35
2023-07-19T10:10:58.855Z,22.20
2023-07-19T10:16:36.843Z,22.49
2023-07-19T10:19:13.885Z,22.62
2023-07-19T10:22:05.236Z,22.81
2023-07-19T10:24:34.671Z,22.93
2023-07-19T10:27:09.620Z,22.90
2023-07-19T10:29:48.805Z,22.58
2023-07-19T10:32:15.485Z,22.64
2023-07-19T10:34:47.582Z,22.66
2023-07-19T10:37:14.624Z,22.74
2023-07-19T10:39:41.881Z,22.66
2023-07-19T10:42:08.803Z,22.77
2023-07-19T10:44:35.447Z,22.89
2023-07-19T10:47:02.110Z,22.97
2023-07-19T10:49:28.957Z,22.99
2023-07-19T10:51:58.641Z,23.01
2023-07-19T10:54:27.114Z,23.00
2023-07-19T10:56:55.516Z,22.95
2023-07-19T10:59:22.267Z,22.90
2023-07-19T11:01:52.369Z,22.85
2023-07-19T11:04:19.925Z,22.85
2023-07-19T11:07:03.951Z,22.73
2023-07-19T11:09:31.571Z,22.71
2023-07-19T11:11:58.788Z,22.58
2023-07-19T11:14:34.766Z,22.34
2023-07-19T11:17:02.628Z,22.31
2023-07-19T11:19:41.753Z,22.18
2023-07-19T11:22:10.242Z,22.24
2023-07-19T11:24:42.469Z,22.16
2023-07-19T11:27:09.550Z,22.14
2023-07-19T11:29:36.772Z,21.95
2023-07-19T11:32:24.523Z,21.79
2023-07-19T11:34:59.546Z,21.84
2023-07-19T11:37:39.879Z,21.85
2023-07-19T11:40:07.421Z,21.82
2023-07-19T11:42:46.863Z,21.81
2023-07-19T11:45:20.491Z,22.04
2023-07-19T11:47:50.527Z,22.15
2023-07-19T11:50:17.442Z,22.25
2023-07-19T11:52:55.772Z,22.26
2023-07-19T11:55:24.126Z,22.12
2023-07-19T11:57:53.041Z,21.95
2023-07-19T12:00:22.996Z,21.91
2023-07-19T12:02:52.117Z,22.02
2023-07-19T12:05:21.821Z,22.22
2023-07-19T12:07:53.004Z,22.58
2023-07-19T12:10:24.699Z,22.80
2023-07-19T12:12:51.468Z,23.24
2023-07-19T12:15:19.636Z,23.44
2023-07-19T12:17:48.194Z,23.97
2023-07-19T12:20:14.966Z,24.69
2023-07-19T12:22:44.746Z,25.34
2023-07-19T12:25:11.704Z,25.86
2023-07-19T12:27:39.360Z,26.45
2023-07-19T12:30:07.174Z,26.59
2023-07-19T12:32:34.739Z,27.11
2023-07-19T12:35:02.954Z,27.36
2023-07-19T12:37:29.600Z,27.34
2023-07-19T12:39:56.305Z,26.88
2023-07-19T12:42:23.174Z,26.43
2023-07-19T12:44:49.825Z,26.73
2023-07-19T12:47:16.916Z,26.83
2023-07-19T12:49:43.825Z,26.71
2023-07-19T12:52:12.413Z,26.70
2023-07-19T12:54:39.554Z,26.83
2023-07-19T12:57:07.164Z,27.19
2023-07-19T12:59:33.961Z,27.49
2023-07-19T13:02:02.318Z,27.44
2023-07-19T13:04:29.103Z,27.14
2023-07-19T13:06:56.121Z,27.15
2023-07-19T13:09:22.962Z,26.84
2023-07-19T13:11:49.826Z,26.63
2023-07-19T13:14:16.849Z,26.11
2023-07-19T13:16:43.549Z,26.02
2023-07-19T13:19:10.892Z,25.96
2023-07-19T13:21:37.812Z,25.89
2023-07-19T13:24:04.735Z,25.80
2023-07-19T13:26:31.901Z,25.61
2023-07-19T13:29:00.610Z,25.44
2023-07-19T13:31:29.005Z,25.35
2023-07-19T13:33:59.217Z,24.89
2023-07-19T13:36:29.848Z,24.35
2023-07-19T13:38:57.793Z,24.31
2023-07-19T13:41:24.889Z,24.20
2023-07-19T13:43:54.737Z,24.23
2023-07-19T13:46:25.876Z,24.49
2023-07-19T13:49:01.122Z,24.47
2023-07-19T13:51:27.802Z,24.42
2023-07-19T13:54:09.221Z,24.48
2023-07-19T13:56:35.848Z,24.49
2023-07-19T13:59:02.549Z,24.09
2023-07-19T14:01:29.322Z,24.19
2023-07-19T14:03:56.538Z,24.19
2023-07-19T14:06:23.859Z,24.20
2023-07-19T14:08:51.033Z,24.13
2023-07-19T14:11:17.712Z,23.94
2023-07-19T14:13:55.229Z,23.63
2023-07-19T14:16:23.209Z,23.63
2023-07-19T14:18:50.453Z,23.51
2023-07-19T14:21:17.251Z,23.68
2023-07-19T14:23:44.247Z,23.66
2023-07-19T14:26:10.928Z,23.79
2023-07-19T14:28:38.679Z,23.53
2023-07-19T14:31:05.456Z,23.84
2023-07-19T14:33:32.314Z,24.17
2023-07-19T14:36:00.667Z,24.50
2023-07-19T14:38:29.686Z,25.15
2023-07-19T14:40:58.044Z,25.54
2023-07-19T14:43:25.717Z,25.36
2023-07-19T14:45:55.815Z,24.81
2023-07-19T14:48:24.772Z,25.24
2023-07-19T14:50:56.645Z,25.01
2023-07-19T14:53:24.036Z,24.90
2023-07-19T14:55:52.710Z,24.80
2023-07-19T14:58:20.361Z,24.71
2023-07-19T15:00:50.707Z,25.25
2023-07-19T15:05:49.956Z,26.35
2023-07-19T15:08:17.388Z,26.25
2023-07-19T15:10:44.228Z,25.69
2023-07-19T15:13:11.900Z,25.88
2023-07-19T15:15:44.539Z,26.18
2023-07-19T15:18:11.971Z,26.50
2023-07-19T15:20:40.201Z,26.69
2023-07-19T15:23:07.201Z,26.88
2023-07-19T15:25:35.156Z,27.21
2023-07-19T15:28:11.012Z,27.29
2023-07-19T15:30:45.149Z,27.52
2023-07-19T15:33:11.943Z,27.41
2023-07-19T15:35:38.670Z,27.49
2023-07-19T15:38:05.391Z,28.38
2023-07-19T15:40:32.104Z,28.05
2023-07-19T15:42:59.214Z,28.90
2023-07-19T15:45:25.967Z,28.91
2023-07-19T15:47:52.832Z,28.65
2023-07-19T15:50:21.534Z,28.13
2023-07-19T15:52:48.273Z,27.42
2023-07-19T15:55:14.943Z,26.27
2023-07-19T15:57:41.607Z,26.27
2023-07-19T16:00:10.239Z,26.27
2023-07-19T16:02:37.147Z,26.32
2023-07-19T16:05:04.213Z,26.86
2023-07-19T16:07:30.853Z,27.63
2023-07-19T16:09:57.687Z,28.39
2023-07-19T16:12:24.489Z,29.19
2023-07-19T16:14:51.213Z,29.65
2023-07-19T16:17:17.925Z,29.49
2023-07-19T16:19:44.539Z,29.30
2023-07-19T16:22:11.607Z,28.83
2023-07-19T16:24:38.298Z,28.49
2023-07-19T16:27:05.315Z,28.32
2023-07-19T16:29:33.325Z,28.00
2023-07-19T16:32:00.320Z,27.61
2023-07-19T16:34:26.928Z,27.18
2023-07-19T16:36:53.612Z,26.95
2023-07-19T16:39:20.840Z,27.04
2023-07-19T16:41:47.628Z,26.94
2023-07-19T16:44:14.326Z,26.41
2023-07-19T16:46:42.984Z,26.13
2023-07-19T16:49:09.758Z,26.11
2023-07-19T16:51:36.658Z,25.93
2023-07-19T16:54:03.489Z,25.60
2023-07-19T16:56:30.446Z,25.60
2023-07-19T16:58:57.165Z,25.07
2023-07-19T17:01:27.782Z,25.02
2023-07-19T17:03:55.033Z,25.05
2023-07-19T17:06:21.769Z,24.83
2023-07-19T17:08:48.530Z,24.93
2023-07-19T17:11:16.079Z,24.80
2023-07-19T17:13:43.001Z,24.87
2023-07-19T17:16:09.736Z,24.68
2023-07-19T17:18:36.927Z,24.68
2023-07-19T17:21:04.504Z,24.35
2023-07-19T17:23:31.179Z,24.32
2023-07-19T17:25:57.973Z,24.00
2023-07-19T17:28:24.584Z,23.87
2023-07-19T17:30:51.376Z,23.88
2023-07-19T17:33:18.403Z,23.98
2023-07-19T17:35:45.769Z,23.97
2023-07-19T17:38:12.609Z,23.95
2023-07-19T17:40:39.411Z,23.79
2023-07-19T17:43:06.168Z,23.73
2023-07-19T17:45:32.857Z,23.79
2023-07-19T17:47:59.652Z,23.86
2023-07-19T17:50:27.046Z,23.90
2023-07-19T17:52:53.860Z,23.97
2023-07-19T17:55:20.817Z,23.92
2023-07-19T17:57:47.569Z,23.76
2023-07-19T18:00:14.773Z,23.37
2023-07-19T18:02:43.051Z,23.46
2023-07-19T18:05:09.727Z,23.45
2023-07-19T18:07:36.359Z,23.52
2023-07-19T18:10:03.402Z,23.57
2023-07-19T18:12:30.176Z,23.62
2023-07-19T18:14:56.830Z,23.28
2023-07-19T18:17:23.724Z,22.81
2023-07-19T18:19:50.341Z,22.84
2023-07-19T18:22:17.133Z,22.49
2023-07-19T18:24:44.249Z,22.55
2023-07-19T18:27:10.895Z,22.65
2023-07-19T18:29:37.656Z,22.55
2023-07-19T18:32:06.009Z,22.44
2023-07-19T18:34:36.887Z,22.40
2023-07-19T18:37:05.103Z,22.05
2023-07-19T18:39:32.101Z,21.59
2023-07-19T18:42:01.685Z,21.30
2023-07-19T18:44:28.422Z,21.43
2023-07-19T18:46:55.204Z,21.60
2023-07-19T18:49:21.890Z,21.62
2023-07-19T18:51:48.536Z,21.74
2023-07-19T18:54:15.183Z,21.53
2023-07-19T18:56:41.896Z,21.43
2023-07-19T18:59:08.510Z,21.51
2023-07-19T19:01:35.319Z,21.51
2023-07-19T19:04:02.075Z,21.36
2023-07-19T19:06:29.930Z,21.34
2023-07-19T19:09:06.602Z,21.26
2023-07-19T19:11:34.338Z,21.27
2023-07-19T19:14:00.971Z,21.08
2023-07-19T19:16:27.946Z,20.85
2023-07-19T19:18:54.836Z,20.85
2023-07-19T19:21:23.982Z,20.80
2023-07-19T19:23:51.021Z,20.94
2023-07-19T19:26:17.808Z,21.03
2023-07-19T19:28:45.849Z,20.96
2023-07-19T19:31:13.944Z,20.91
2023-07-19T19:33:40.881Z,20.94
2023-07-19T19:36:08.266Z,20.97
2023-07-19T19:38:35.032Z,20.90
2023-07-19T19:41:01.908Z,20.95
2023-07-19T19:43:28.688Z,20.89
2023-07-19T19:45:55.329Z,20.91
2023-07-19T19:48:22.007Z,20.82
2023-07-19T19:50:49.577Z,20.80
2023-07-19T19:53:16.725Z,20.80
2023-07-19T19:58:13.080Z,20.67
2023-07-19T20:00:41.439Z,20.60
2023-07-19T20:08:09.284Z,20.43
2023-07-19T20:10:35.923Z,20.38
2023-07-19T20:13:03.529Z,20.35
2023-07-19T20:15:49.265Z,20.28
2023-07-19T20:20:47.558Z,20.12
2023-07-19T20:23:14.464Z,20.11
2023-07-19T20:25:48.672Z,20.10
2023-07-19T20:28:28.999Z,20.06
2023-07-19T20:31:05.800Z,20.03
2023-07-19T20:33:34.393Z,19.89
2023-07-19T20:43:30.466Z,19.72
2023-07-19T20:45:57.830Z,19.72
2023-07-19T20:48:33.829Z,19.64
2023-07-19T20:51:01.788Z,19.58
2023-07-19T20:53:28.483Z,19.47
2023-07-19T20:55:55.423Z,19.50
2023-07-19T20:58:22.130Z,19.52
2023-07-19T21:00:48.852Z,19.50
2023-07-19T21:03:15.670Z,19.46
2023-07-19T21:05:42.502Z,19.45
2023-07-19T21:08:09.099Z,19.42
2023-07-19T21:10:36.319Z,19.43
2023-07-19T21:13:03.292Z,19.47
2023-07-19T21:15:30.012Z,19.48
2023-07-19T21:17:56.795Z,19.40
2023-07-19T21:20:24.611Z,19.43
2023-07-19T21:22:52.375Z,19.43
2023-07-19T21:25:19.405Z,19.42
2023-07-19T21:27:46.449Z,19.37
2023-07-19T21:30:14.679Z,19.41
2023-07-19T21:32:42.687Z,19.37
2023-07-19T21:35:10.458Z,19.32
2023-07-19T21:37:38.786Z,19.19
2023-07-19T21:40:06.571Z,19.11
2023-07-19T21:42:34.617Z,19.07
2023-07-19T21:45:01.301Z,18.98
2023-07-19T21:47:27.984Z,18.97
2023-07-19T21:49:54.700Z,19.01
2023-07-19T21:52:21.348Z,19.00
2023-07-19T21:54:48.020Z,18.95
2023-07-19T21:57:14.627Z,19.01
2023-07-19T21:59:41.376Z,18.99
2023-07-19T22:02:08.984Z,18.96
2023-07-19T22:04:38.749Z,18.95
2023-07-19T22:07:06.110Z,18.97
2023-07-19T22:09:32.920Z,18.97
2023-07-19T22:11:59.655Z,18.94
2023-07-19T22:14:26.303Z,18.84
2023-07-19T22:16:56.095Z,18.90
2023-07-19T22:19:22.944Z,18.92
2023-07-19T22:21:50.099Z,18.89
2023-07-19T22:24:17.002Z,18.85
2023-07-19T22:26:44.295Z,18.85
2023-07-19T22:29:11.045Z,18.82
2023-07-19T22:31:37.754Z,18.81
2023-07-19T22:34:04.423Z,18.80
2023-07-19T22:36:31.043Z,18.82
2023-07-19T22:38:57.675Z,18.79
2023-07-19T22:41:24.862Z,18.82
2023-07-19T22:43:51.531Z,18.74
2023-07-19T22:46:19.928Z,18.73
2023-07-19T22:48:50.484Z,18.71
2023-07-19T22:51:18.340Z,18.68
2023-07-19T22:53:46.529Z,18.68
2023-07-19T22:56:13.596Z,18.65
2023-07-19T22:58:40.292Z,18.62
2023-07-19T23:01:07.149Z,18.41
2023-07-19T23:03:36.075Z,18.44
2023-07-19T23:06:07.361Z,18.47
2023-07-19T23:08:34.276Z,18.38
2023-07-19T23:11:01.087Z,18.36
2023-07-19T23:13:27.831Z,18.34
2023-07-19T23:15:54.524Z,18.33
2023-07-19T23:18:23.170Z,18.27
2023-07-19T23:20:51.096Z,18.22
2023-07-19T23:23:18.004Z,18.17
2023-07-19T23:25:44.697Z,18.16
2023-07-19T23:28:11.436Z,18.14
2023-07-19T23:30:40.501Z,18.11
2023-07-19T23:33:07.399Z,18.06
2023-07-19T23:35:35.358Z,18.05
2023-07-19T23:38:02.410Z,18.03
2023-07-19T23:40:29.100Z,17.96
2023-07-19T23:42:56.002Z,17.95
2023-07-19T23:45:22.700Z,17.93
2023-07-19T23:47:49.914Z,17.89
2023-07-19T23:50:17.156Z,17.84
2023-07-19T23:52:43.998Z,17.80
2023-07-19T23:55:11.167Z,17.75
2023-07-19T23:57:37.899Z,17.68
